createdAt,value
2018-09-09T00:03:20.380Z,59.93
2018-09-09T00:07:24.360Z,60.59
2018-09-09T00:11:27.946Z,60.25
2018-09-09T00:15:32.854Z,59.99
2018-09-09T00:19:36.609Z,60.49
2018-09-09T00:23:40.134Z,60.25
2018-09-09T00:27:43.772Z,60.63
2018-09-09T00:31:47.456Z,60.63
2018-09-09T00:35:52.019Z,61.18
2018-09-09T00:39:55.794Z,60.67
2018-09-09T00:43:59.488Z,61.25
2018-09-09T00:48:03.176Z,61.00
2018-09-09T00:52:15.256Z,61.62
2018-09-09T00:56:18.818Z,61.46
2018-09-09T01:00:27.807Z,62.07
2018-09-09T01:04:31.472Z,62.33
2018-09-09T01:08:36.181Z,62.35
2018-09-09T01:12:39.811Z,62.56
2018-09-09T01:16:43.293Z,62.64
2018-09-09T01:20:46.945Z,62.75
2018-09-09T01:24:52.654Z,62.87
2018-09-09T01:28:56.346Z,62.86
2018-09-09T01:32:59.883Z,62.83
2018-09-09T01:37:03.745Z,63.04
2018-09-09T01:41:07.613Z,63.02
2018-09-09T01:45:11.179Z,63.14
2018-09-09T01:49:14.690Z,62.84
2018-09-09T01:53:18.235Z,63.52
2018-09-09T01:57:22.034Z,63.44
2018-09-09T02:01:25.675Z,63.53
2018-09-09T02:05:29.203Z,63.43
2018-09-09T02:09:32.946Z,63.73
2018-09-09T02:13:36.586Z,63.67
2018-09-09T02:17:40.338Z,63.67
2018-09-09T02:21:43.885Z,63.79
2018-09-09T02:25:47.456Z,64.07
2018-09-09T02:29:51.182Z,63.86
2018-09-09T02:33:54.797Z,64.12
2018-09-09T02:37:58.653Z,64.36
2018-09-09T02:42:02.298Z,64.29
2018-09-09T02:46:06.089Z,64.50
2018-09-09T02:50:09.650Z,64.47
2018-09-09T02:54:15.342Z,64.54
2018-09-09T02:58:19.016Z,64.51
2018-09-09T03:02:22.560Z,64.51
2018-09-09T03:06:26.225Z,64.56
2018-09-09T03:10:29.831Z,64.60
2018-09-09T03:14:33.950Z,64.54
2018-09-09T03:18:37.726Z,64.79
2018-09-09T03:22:41.421Z,64.68
2018-09-09T03:26:45.953Z,64.81
2018-09-09T03:30:49.975Z,64.57
2018-09-09T03:34:53.755Z,64.88
2018-09-09T03:38:57.693Z,64.83
2018-09-09T03:43:03.740Z,65.01
2018-09-09T03:47:07.283Z,65.15
2018-09-09T03:51:12.306Z,65.31
2018-09-09T03:55:15.952Z,65.50
2018-09-09T03:59:20.075Z,65.29
2018-09-09T04:03:23.712Z,65.27
2018-09-09T04:07:27.708Z,65.17
2018-09-09T04:11:31.474Z,65.44
2018-09-09T04:15:36.149Z,65.29
2018-09-09T04:19:39.666Z,65.16
2018-09-09T04:23:43.376Z,65.26
2018-09-09T04:27:46.915Z,65.09
2018-09-09T04:31:50.512Z,65.52
2018-09-09T04:35:54.579Z,65.49
2018-09-09T04:39:58.266Z,65.58
2018-09-09T04:44:03.107Z,65.88
2018-09-09T04:48:06.768Z,65.84
2018-09-09T04:52:10.736Z,65.73
2018-09-09T04:56:14.450Z,65.97
2018-09-09T05:00:18.137Z,66.23
2018-09-09T05:04:21.946Z,66.27
2018-09-09T05:08:25.606Z,66.32
2018-09-09T05:12:29.523Z,66.27
2018-09-09T05:16:33.094Z,66.51
2018-09-09T05:20:36.962Z,66.38
2018-09-09T05:24:40.524Z,66.32
2018-09-09T05:28:44.494Z,66.60
2018-09-09T05:32:48.154Z,66.64
2018-09-09T05:36:53.161Z,66.74
2018-09-09T05:40:56.943Z,66.74
2018-09-09T05:45:01.355Z,66.74
2018-09-09T05:49:05.441Z,66.59
2018-09-09T05:53:09.043Z,66.86
2018-09-09T05:57:12.806Z,66.92
2018-09-09T06:01:17.412Z,66.95
2018-09-09T06:05:20.956Z,66.63
2018-09-09T06:09:24.760Z,66.78
2018-09-09T06:13:28.248Z,66.79
2018-09-09T06:17:32.330Z,66.37
2018-09-09T06:21:36.135Z,66.40
2018-09-09T06:25:39.866Z,65.97
2018-09-09T06:29:43.619Z,66.02
2018-09-09T06:33:47.638Z,66.16
2018-09-09T06:37:51.445Z,65.53
2018-09-09T06:41:55.065Z,65.06
2018-09-09T06:45:58.684Z,64.73
2018-09-09T06:50:02.398Z,64.52
2018-09-09T06:54:06.463Z,64.89
2018-09-09T06:58:10.220Z,64.99
2018-09-09T07:02:13.890Z,63.81
2018-09-09T07:06:17.554Z,63.54
2018-09-09T07:10:21.334Z,64.20
2018-09-09T07:14:25.248Z,64.17
2018-09-09T07:18:28.773Z,63.66
2018-09-09T07:22:32.376Z,63.70
2018-09-09T07:26:36.076Z,63.56
2018-09-09T07:30:39.781Z,63.38
2018-09-09T07:34:43.451Z,63.06
2018-09-09T07:38:47.111Z,62.24
2018-09-09T07:42:50.641Z,62.05
2018-09-09T07:46:54.270Z,61.84
2018-09-09T07:50:57.974Z,61.09
2018-09-09T07:55:01.603Z,61.19
2018-09-09T07:59:05.203Z,61.54
2018-09-09T08:03:08.894Z,61.80
2018-09-09T08:07:12.765Z,61.97
2018-09-09T08:11:16.374Z,62.04
2018-09-09T08:15:21.495Z,60.86
2018-09-09T08:19:25.983Z,61.00
2018-09-09T08:23:30.079Z,60.94
2018-09-09T08:27:34.253Z,61.24
2018-09-09T08:31:37.910Z,60.83
2018-09-09T08:35:42.638Z,60.35
2018-09-09T08:39:46.181Z,59.41
2018-09-09T08:43:49.817Z,59.67
2018-09-09T08:47:53.359Z,59.85
2018-09-09T08:51:57.204Z,59.56
2018-09-09T08:56:01.107Z,59.43
2018-09-09T09:00:04.810Z,59.41
2018-09-09T09:04:08.397Z,59.32
2018-09-09T09:08:12.067Z,58.16
2018-09-09T09:12:16.259Z,58.20
2018-09-09T09:16:20.036Z,57.75
2018-09-09T09:20:23.624Z,57.73
2018-09-09T09:24:27.282Z,57.72
2018-09-09T09:28:30.834Z,56.78
2018-09-09T09:32:34.514Z,57.01
2018-09-09T09:36:38.280Z,55.78
2018-09-09T09:40:41.798Z,56.34
2018-09-09T09:44:45.777Z,56.78
2018-09-09T09:48:49.720Z,55.34
2018-09-09T09:52:53.330Z,55.58
2018-09-09T09:56:56.950Z,55.84
2018-09-09T10:01:01.940Z,54.84
2018-09-09T10:05:05.500Z,54.16
2018-09-09T10:09:09.135Z,53.58
2018-09-09T10:13:12.797Z,52.94
2018-09-09T10:17:16.386Z,52.31
2018-09-09T10:21:19.979Z,51.78
2018-09-09T10:25:23.863Z,51.42
2018-09-09T10:29:27.451Z,50.98
2018-09-09T10:33:31.094Z,50.46
2018-09-09T10:37:34.786Z,49.51
2018-09-09T10:41:38.833Z,49.94
2018-09-09T10:45:42.752Z,48.90
2018-09-09T10:49:46.323Z,48.46
2018-09-09T10:53:49.926Z,48.98
2018-09-09T10:57:53.750Z,48.09
2018-09-09T11:01:57.332Z,46.54
2018-09-09T11:06:01.646Z,46.70
2018-09-09T11:10:05.266Z,46.74
2018-09-09T11:14:08.834Z,46.84
2018-09-09T11:18:12.706Z,46.63
2018-09-09T11:22:16.409Z,46.53
2018-09-09T11:26:21.057Z,46.65
2018-09-09T11:30:24.753Z,46.52
2018-09-09T11:34:28.432Z,44.68
2018-09-09T11:38:32.070Z,45.03
2018-09-09T11:42:35.784Z,44.70
2018-09-09T11:46:39.359Z,44.34
2018-09-09T11:50:42.827Z,44.18
2018-09-09T11:54:46.549Z,43.23
2018-09-09T11:58:50.252Z,43.70
2018-09-09T12:02:53.880Z,43.29
2018-09-09T12:06:57.745Z,42.52
2018-09-09T12:11:01.694Z,42.81
2018-09-09T12:15:06.844Z,42.90
2018-09-09T12:19:10.328Z,42.09
2018-09-09T12:23:34.144Z,41.49
2018-09-09T12:27:37.937Z,42.24
2018-09-09T12:31:41.625Z,42.54
2018-09-09T12:35:45.391Z,43.03
2018-09-09T12:39:49.149Z,42.08
2018-09-09T12:43:58.174Z,41.90
2018-09-09T12:48:07.010Z,41.32
2018-09-09T12:52:10.855Z,41.66
2018-09-09T12:56:15.956Z,41.05
2018-09-09T13:00:19.695Z,39.89
2018-09-09T13:04:23.694Z,40.40
2018-09-09T13:08:27.305Z,40.37
2018-09-09T13:13:34.204Z,41.22
2018-09-09T13:17:37.859Z,41.24
2018-09-09T13:21:41.536Z,39.87
2018-09-09T13:25:45.261Z,41.02
2018-09-09T13:29:48.779Z,39.94
2018-09-09T13:33:52.502Z,38.74
2018-09-09T13:37:56.428Z,37.70
2018-09-09T13:42:00.363Z,38.43
2018-09-09T13:46:03.965Z,40.23
2018-09-09T13:50:07.532Z,40.80
2018-09-09T13:54:11.155Z,41.14
2018-09-09T13:58:14.999Z,42.43
2018-09-09T14:02:18.570Z,41.92
2018-09-09T14:06:22.314Z,40.96
2018-09-09T14:10:25.904Z,39.36
2018-09-09T14:14:29.709Z,39.48
2018-09-09T14:18:33.347Z,40.81
2018-09-09T14:22:38.239Z,41.01
2018-09-09T14:26:41.810Z,39.70
2018-09-09T14:30:45.636Z,40.27
2018-09-09T14:34:49.345Z,40.10
2018-09-09T14:38:53.077Z,39.99
2018-09-09T14:42:57.868Z,40.24
2018-09-09T14:47:01.906Z,40.40
2018-09-09T14:51:05.448Z,40.27
2018-09-09T14:55:09.210Z,40.29
2018-09-09T14:59:13.259Z,40.44
2018-09-09T15:03:16.973Z,40.84
2018-09-09T15:07:20.576Z,41.47
2018-09-09T15:11:24.232Z,41.97
2018-09-09T15:15:27.976Z,40.99
2018-09-09T15:19:31.564Z,42.13
2018-09-09T15:23:35.415Z,42.00
2018-09-09T15:27:39.118Z,41.70
2018-09-09T15:31:42.715Z,41.10
2018-09-09T15:35:46.332Z,42.30
2018-09-09T15:39:50.128Z,42.05
2018-09-09T15:43:53.899Z,41.83
2018-09-09T15:47:57.527Z,42.44
2018-09-09T15:52:01.460Z,42.42
2018-09-09T15:56:05.054Z,42.98
2018-09-09T16:00:08.954Z,42.81
2018-09-09T16:04:12.673Z,42.68
2018-09-09T16:08:16.406Z,43.67
2018-09-09T16:12:19.999Z,44.00
2018-09-09T16:16:24.959Z,43.62
2018-09-09T16:20:28.772Z,44.84
2018-09-09T16:24:32.429Z,44.29
2018-09-09T16:28:36.002Z,45.30
2018-09-09T16:32:39.779Z,45.40
2018-09-09T16:36:44.497Z,45.42
2018-09-09T16:40:48.637Z,45.82
2018-09-09T16:44:53.217Z,44.90
2018-09-09T16:48:56.946Z,44.26
2018-09-09T16:53:00.774Z,45.28
2018-09-09T16:57:04.637Z,45.08
2018-09-09T17:02:37.257Z,44.85
2018-09-09T17:06:40.842Z,45.36
2018-09-09T17:10:44.437Z,45.94
2018-09-09T17:14:47.987Z,45.27
2018-09-09T17:18:52.756Z,46.12
2018-09-09T17:27:48.337Z,46.87
2018-09-09T17:32:16.872Z,46.53
2018-09-09T17:36:40.925Z,46.72
2018-09-09T17:45:37.798Z,47.28
2018-09-09T18:41:01.759Z,51.64
2018-09-09T18:54:11.163Z,51.57
2018-09-09T18:59:00.872Z,52.27
2018-09-09T19:03:34.567Z,52.09
2018-09-09T19:07:49.334Z,53.00
2018-09-09T19:12:36.467Z,53.81
2018-09-09T19:21:58.795Z,53.63
2018-09-09T20:20:26.275Z,56.57
2018-09-09T20:24:29.808Z,56.43
2018-09-09T20:28:35.374Z,57.14
2018-09-09T20:32:39.956Z,56.63
2018-09-09T20:36:43.858Z,57.39
2018-09-09T20:40:47.558Z,57.28
2018-09-09T20:44:51.222Z,57.54
2018-09-09T20:48:55.331Z,57.76
2018-09-09T20:52:58.923Z,56.72
2018-09-09T20:57:02.883Z,57.51
2018-09-09T21:01:06.725Z,57.25
2018-09-09T21:05:10.373Z,58.16
2018-09-09T21:09:14.395Z,58.33
2018-09-09T21:13:18.108Z,57.62
2018-09-09T21:17:21.678Z,58.33
2018-09-09T21:21:25.445Z,58.25
2018-09-09T21:25:29.073Z,58.77
2018-09-09T21:29:32.740Z,58.73
2018-09-09T21:33:36.644Z,58.89
2018-09-09T21:37:40.233Z,59.64
2018-09-09T21:41:43.687Z,59.00
2018-09-09T21:45:47.239Z,59.57
2018-09-09T21:49:50.941Z,59.48
2018-09-09T21:53:54.674Z,59.90
2018-09-09T21:57:58.110Z,59.25
2018-09-09T22:02:07.494Z,59.17
2018-09-09T22:06:10.983Z,59.76
2018-09-09T22:10:14.744Z,59.69
2018-09-09T22:14:18.286Z,60.07
2018-09-09T22:18:21.885Z,59.36
2018-09-09T22:22:25.331Z,60.38
2018-09-09T22:26:28.904Z,60.66
2018-09-09T22:30:32.491Z,60.12
2018-09-09T22:34:36.136Z,59.92
2018-09-09T22:38:39.702Z,60.39
2018-09-09T22:42:43.643Z,60.69
2018-09-09T22:46:47.109Z,60.67
2018-09-09T22:50:50.829Z,61.55
2018-09-09T22:54:54.467Z,61.48
2018-09-09T22:58:58.270Z,61.71
2018-09-09T23:03:01.878Z,61.25
2018-09-09T23:07:05.489Z,61.14
2018-09-09T23:11:09.125Z,61.40
2018-09-09T23:15:12.929Z,61.40
2018-09-09T23:19:16.562Z,61.79
2018-09-09T23:23:20.239Z,61.85
2018-09-09T23:27:23.817Z,62.00
2018-09-09T23:31:27.389Z,62.13
2018-09-09T23:35:31.077Z,62.32
2018-09-09T23:39:34.672Z,62.69
2018-09-09T23:43:38.252Z,62.52
2018-09-09T23:47:41.891Z,62.87
2018-09-09T23:51:45.478Z,63.15
2018-09-09T23:55:49.015Z,63.47
2018-09-09T23:59:52.565Z,62.67
